Raleigh, North Dakota
Current Conditions -  °F | °C
As of 7:15 PM on Saturday 22 Nov 2014 (Local Time) from KY19 Reporting Station
Clear Clear  
Wind Chill: 36°   Ceiling: Unl
Heat Index: 36°   Visibility: 10mi
Dew Point: 34°   Wind: 3mph
Humidity: 93%   Direction: 220°SW
Pressure: 29.34"   Gusts: NA
Location:  46.36°N, 101.31°W
Report Text: KY19 230215Z AUTO 22003KT 10SM CLR 02/01 A2934 RMK AO2
Loading
Personal Weather Stations






























Interactive Weather Map New forecast layout! Learn more

10-Day Weather Forecast

Advertisements
Track Severe Weather on mobile